sensor_id;sensor_type;location;lat;lon;timestamp;pressure;altitude;pressure_sealevel;temperature;humidity
30819;BME280;17546;42.674;23.284;2023-01-01T00:01:10;96133.59;;;13.70;42.33
30819;BME280;17546;42.674;23.284;2023-01-01T00:03:36;96135.97;;;13.77;42.20
30819;BME280;17546;42.674;23.284;2023-01-01T00:06:20;96133.59;;;13.70;42.49
30819;BME280;17546;42.674;23.284;2023-01-01T00:08:46;96129.72;;;13.82;41.96
30819;BME280;17546;42.674;23.284;2023-01-01T00:11:11;96143.47;;;13.71;42.07
30819;BME280;17546;42.674;23.284;2023-01-01T00:13:40;96144.75;;;13.55;42.52
30819;BME280;17546;42.674;23.284;2023-01-01T00:16:06;96150.13;;;13.59;42.45
30819;BME280;17546;42.674;23.284;2023-01-01T00:18:32;96151.75;;;13.66;42.22
30819;BME280;17546;42.674;23.284;2023-01-01T00:21:12;96151.75;;;13.66;42.30
30819;BME280;17546;42.674;23.284;2023-01-01T00:23:38;96154.34;;;13.69;42.14
30819;BME280;17546;42.674;23.284;2023-01-01T00:26:15;96155.22;;;13.46;42.68
30819;BME280;17546;42.674;23.284;2023-01-01T00:28:41;96157.91;;;13.55;42.22
30819;BME280;17546;42.674;23.284;2023-01-01T00:31:08;96144.78;;;13.40;42.45
30819;BME280;17546;42.674;23.284;2023-01-01T00:33:37;96166.06;;;13.43;42.50
30819;BME280;17546;42.674;23.284;2023-01-01T00:36:13;96161.09;;;13.48;42.63
30819;BME280;17546;42.674;23.284;2023-01-01T00:38:40;96156.50;;;13.30;42.94
30819;BME280;17546;42.674;23.284;2023-01-01T00:41:05;96159.19;;;13.39;42.48
30819;BME280;17546;42.674;23.284;2023-01-01T00:43:31;96152.28;;;13.34;42.56
30819;BME280;17546;42.674;23.284;2023-01-01T00:45:56;96160.34;;;13.32;42.67
30819;BME280;17546;42.674;23.284;2023-01-01T00:48:22;96157.44;;;13.41;42.58
30819;BME280;17546;42.674;23.284;2023-01-01T00:50:49;96164.28;;;13.40;42.66
30819;BME280;17546;42.674;23.284;2023-01-01T00:53:15;96163.59;;;13.31;42.50
30819;BME280;17546;42.674;23.284;2023-01-01T00:55:41;96165.97;;;13.23;42.55
30819;BME280;17546;42.674;23.284;2023-01-01T00:58:07;96162.81;;;13.30;42.61
30819;BME280;17546;42.674;23.284;2023-01-01T01:00:33;96170.97;;;13.19;42.86
30819;BME280;17546;42.674;23.284;2023-01-01T01:02:59;96175.47;;;13.31;42.54
30819;BME280;17546;42.674;23.284;2023-01-01T01:05:24;96163.97;;;13.38;42.50
30819;BME280;17546;42.674;23.284;2023-01-01T01:07:49;96158.78;;;13.31;42.54
30819;BME280;17546;42.674;23.284;2023-01-01T01:10:15;96155.38;;;13.27;42.43
30819;BME280;17546;42.674;23.284;2023-01-01T01:12:41;96147.72;;;13.22;42.54
30819;BME280;17546;42.674;23.284;2023-01-01T01:15:08;96155.88;;;13.26;42.50
30819;BME280;17546;42.674;23.284;2023-01-01T01:17:34;96159.34;;;13.35;42.14
30819;BME280;17546;42.674;23.284;2023-01-01T01:19:59;96149.75;;;13.21;42.25
30819;BME280;17546;42.674;23.284;2023-01-01T01:22:25;96147.84;;;13.28;42.09
30819;BME280;17546;42.674;23.284;2023-01-01T01:24:50;96152.75;;;13.33;41.93
30819;BME280;17546;42.674;23.284;2023-01-01T01:27:16;96150.31;;;13.26;41.77
30819;BME280;17546;42.674;23.284;2023-01-01T01:29:41;96144.94;;;13.07;42.07
30819;BME280;17546;42.674;23.284;2023-01-01T01:32:06;96145.53;;;13.11;41.97
30819;BME280;17546;42.674;23.284;2023-01-01T01:34:32;96146.66;;;13.05;42.40
30819;BME280;17546;42.674;23.284;2023-01-01T01:36:57;96144.75;;;13.11;42.25
30819;BME280;17546;42.674;23.284;2023-01-01T01:39:23;96151.75;;;13.06;42.22
30819;BME280;17546;42.674;23.284;2023-01-01T01:41:48;96153.88;;;13.11;42.24
30819;BME280;17546;42.674;23.284;2023-01-01T01:49:44;96146.69;;;12.90;42.40
30819;BME280;17546;42.674;23.284;2023-01-01T01:52:09;96141.19;;;12.95;42.42
30819;BME280;17546;42.674;23.284;2023-01-01T01:54:35;96138.81;;;12.88;42.64
30819;BME280;17546;42.674;23.284;2023-01-01T01:57:07;96131.59;;;12.81;42.65
30819;BME280;17546;42.674;23.284;2023-01-01T01:59:37;96137.34;;;12.78;42.71
30819;BME280;17546;42.674;23.284;2023-01-01T02:02:15;96150.69;;;12.89;42.74
30819;BME280;17546;42.674;23.284;2023-01-01T02:04:42;96156.25;;;12.89;42.67
30819;BME280;17546;42.674;23.284;2023-01-01T02:07:08;96153.94;;;12.87;42.63
30819;BME280;17546;42.674;23.284;2023-01-01T02:09:34;96164.88;;;12.91;42.68
30819;BME280;17546;42.674;23.284;2023-01-01T02:11:59;96143.88;;;12.75;42.84
30819;BME280;17546;42.674;23.284;2023-01-01T02:14:25;96159.88;;;12.80;42.82
30819;BME280;17546;42.674;23.284;2023-01-01T02:16:55;96171.22;;;12.91;42.80
30819;BME280;17546;42.674;23.284;2023-01-01T02:30:04;96164.81;;;12.46;43.68
30819;BME280;17546;42.674;23.284;2023-01-01T02:32:34;96163.13;;;12.64;43.41
30819;BME280;17546;42.674;23.284;2023-01-01T02:35:09;96161.28;;;12.60;43.45
30819;BME280;17546;42.674;23.284;2023-01-01T02:37:58;96162.91;;;12.52;43.72
30819;BME280;17546;42.674;23.284;2023-01-01T02:40:25;96155.09;;;12.66;43.43
30819;BME280;17546;42.674;23.284;2023-01-01T02:42:52;96148.56;;;12.69;43.19
30819;BME280;17546;42.674;23.284;2023-01-01T02:45:20;96154.97;;;12.60;43.41
30819;BME280;17546;42.674;23.284;2023-01-01T02:47:45;96152.84;;;12.70;43.31
30819;BME280;17546;42.674;23.284;2023-01-01T02:50:14;96151.81;;;12.67;43.17
30819;BME280;17546;42.674;23.284;2023-01-01T02:52:51;96155.47;;;12.73;43.02
30819;BME280;17546;42.674;23.284;2023-01-01T02:55:33;96158.72;;;12.72;43.00
30819;BME280;17546;42.674;23.284;2023-01-01T02:58:15;96144.97;;;12.53;43.41
30819;BME280;17546;42.674;23.284;2023-01-01T03:01:23;96136.75;;;12.74;42.84
30819;BME280;17546;42.674;23.284;2023-01-01T03:04:13;96145.41;;;12.76;42.77
30819;BME280;17546;42.674;23.284;2023-01-01T03:09:44;96141.06;;;12.60;42.82
30819;BME280;17546;42.674;23.284;2023-01-01T03:14:57;96140.59;;;12.61;42.62
30819;BME280;17546;42.674;23.284;2023-01-01T03:17:36;96144.84;;;12.48;42.96
30819;BME280;17546;42.674;23.284;2023-01-01T03:20:09;96146.88;;;12.47;43.07
30819;BME280;17546;42.674;23.284;2023-01-01T03:22:37;96160.97;;;12.44;43.21
30819;BME280;17546;42.674;23.284;2023-01-01T03:25:09;96157.16;;;12.56;42.88
30819;BME280;17546;42.674;23.284;2023-01-01T03:27:37;96162.25;;;12.57;42.96
30819;BME280;17546;42.674;23.284;2023-01-01T03:30:07;96158.50;;;12.60;43.07
30819;BME280;17546;42.674;23.284;2023-01-01T03:32:38;96155.94;;;12.72;42.97
30819;BME280;17546;42.674;23.284;2023-01-01T03:35:47;96148.06;;;12.55;43.06
30819;BME280;17546;42.674;23.284;2023-01-01T03:38:16;96150.66;;;12.59;43.03
30819;BME280;17546;42.674;23.284;2023-01-01T03:40:44;96152.31;;;12.66;42.74
30819;BME280;17546;42.674;23.284;2023-01-01T03:43:20;96156.53;;;12.76;42.60
30819;BME280;17546;42.674;23.284;2023-01-01T03:45:48;96148.56;;;12.69;42.71
30819;BME280;17546;42.674;23.284;2023-01-01T03:48:15;96150.38;;;12.72;42.81
30819;BME280;17546;42.674;23.284;2023-01-01T03:51:00;96152.31;;;12.66;42.75
30819;BME280;17546;42.674;23.284;2023-01-01T03:56:22;96158.34;;;12.64;42.55
30819;BME280;17546;42.674;23.284;2023-01-01T04:01:33;96155.03;;;12.51;43.04
30819;BME280;17546;42.674;23.284;2023-01-01T04:04:02;96151.41;;;12.59;42.68
30819;BME280;17546;42.674;23.284;2023-01-01T04:06:31;96156.56;;;12.52;42.86
30819;BME280;17546;42.674;23.284;2023-01-01T04:08:57;96148.34;;;12.57;42.84
30819;BME280;17546;42.674;23.284;2023-01-01T04:11:27;96150.06;;;12.55;42.82
30819;BME280;17546;42.674;23.284;2023-01-01T04:14:12;96149.19;;;12.49;42.91
30819;BME280;17546;42.674;23.284;2023-01-01T04:16:38;96154.38;;;12.56;42.68
30819;BME280;17546;42.674;23.284;2023-01-01T04:19:04;96162.13;;;12.52;42.58
30819;BME280;17546;42.674;23.284;2023-01-01T04:21:32;96158.78;;;12.63;42.50
30819;BME280;17546;42.674;23.284;2023-01-01T04:23:58;96161.38;;;12.51;42.66
30819;BME280;17546;42.674;23.284;2023-01-01T04:26:23;96151.34;;;12.69;42.24
30819;BME280;17546;42.674;23.284;2023-01-01T04:28:49;96159.00;;;12.59;42.20
30819;BME280;17546;42.674;23.284;2023-01-01T04:31:14;96159.16;;;12.55;42.30
30819;BME280;17546;42.674;23.284;2023-01-01T04:33:39;96156.59;;;12.67;42.04
30819;BME280;17546;42.674;23.284;2023-01-01T04:36:25;96159.53;;;12.48;42.07
30819;BME280;17546;42.674;23.284;2023-01-01T04:38:50;96150.78;;;12.40;42.56
30819;BME280;17546;42.674;23.284;2023-01-01T04:41:16;96161.31;;;12.36;42.43
30819;BME280;17546;42.674;23.284;2023-01-01T04:43:41;96161.44;;;12.42;42.41
30819;BME280;17546;42.674;23.284;2023-01-01T04:46:10;96163.22;;;12.30;42.81
30819;BME280;17546;42.674;23.284;2023-01-01T04:48:35;96160.56;;;12.36;42.68
30819;BME280;17546;42.674;23.284;2023-01-01T04:51:03;96165.16;;;12.39;42.44
30819;BME280;17546;42.674;23.284;2023-01-01T04:53:31;96167.06;;;12.33;42.53
30819;BME280;17546;42.674;23.284;2023-01-01T04:56:09;96154.63;;;12.43;42.10
30819;BME280;17546;42.674;23.284;2023-01-01T04:58:39;96153.72;;;12.22;42.49
30819;BME280;17546;42.674;23.284;2023-01-01T05:01:05;96161.28;;;12.22;42.68
30819;BME280;17546;42.674;23.284;2023-01-01T05:03:31;96163.41;;;12.27;42.46
30819;BME280;17546;42.674;23.284;2023-01-01T05:06:01;96171.13;;;12.23;42.93
30819;BME280;17546;42.674;23.284;2023-01-01T05:08:28;96168.06;;;12.20;42.99
30819;BME280;17546;42.674;23.284;2023-01-01T05:11:02;96165.59;;;12.23;43.13
30819;BME280;17546;42.674;23.284;2023-01-01T05:13:28;96175.09;;;12.31;42.96
30819;BME280;17546;42.674;23.284;2023-01-01T05:15:54;96177.81;;;12.40;42.84
30819;BME280;17546;42.674;23.284;2023-01-01T05:18:20;96183.75;;;12.33;42.89
30819;BME280;17546;42.674;23.284;2023-01-01T05:20:46;96177.88;;;12.31;42.70
30819;BME280;17546;42.674;23.284;2023-01-01T05:23:11;96171.06;;;12.32;42.80
30819;BME280;17546;42.674;23.284;2023-01-01T05:25:36;96171.84;;;12.32;42.88
30819;BME280;17546;42.674;23.284;2023-01-01T05:28:02;96185.84;;;12.38;42.59
30819;BME280;17546;42.674;23.284;2023-01-01T05:30:27;96178.88;;;12.43;42.61
30819;BME280;17546;42.674;23.284;2023-01-01T05:32:53;96177.22;;;12.36;42.50
30819;BME280;17546;42.674;23.284;2023-01-01T05:35:18;96180.59;;;12.40;42.40
30819;BME280;17546;42.674;23.284;2023-01-01T05:37:43;96180.72;;;12.46;42.20
30819;BME280;17546;42.674;23.284;2023-01-01T05:40:09;96190.88;;;12.25;42.37
30819;BME280;17546;42.674;23.284;2023-01-01T05:42:35;96187.13;;;12.37;42.26
30819;BME280;17546;42.674;23.284;2023-01-01T05:45:01;96181.06;;;12.38;42.22
30819;BME280;17546;42.674;23.284;2023-01-01T05:47:27;96186.81;;;12.35;42.18
30819;BME280;17546;42.674;23.284;2023-01-01T05:49:53;96189.94;;;12.28;42.45
30819;BME280;17546;42.674;23.284;2023-01-01T05:52:18;96180.06;;;12.27;42.54
30819;BME280;17546;42.674;23.284;2023-01-01T05:54:44;96200.72;;;12.35;42.43
30819;BME280;17546;42.674;23.284;2023-01-01T05:57:09;96189.75;;;12.31;42.36
30819;BME280;17546;42.674;23.284;2023-01-01T05:59:34;96196.16;;;12.23;42.62
30819;BME280;17546;42.674;23.284;2023-01-01T06:02:00;96185.84;;;12.38;42.53
30819;BME280;17546;42.674;23.284;2023-01-01T06:04:25;96189.41;;;12.38;42.45
30819;BME280;17546;42.674;23.284;2023-01-01T06:06:51;96196.00;;;12.41;42.39
30819;BME280;17546;42.674;23.284;2023-01-01T06:09:16;96194.94;;;12.14;42.97
30819;BME280;17546;42.674;23.284;2023-01-01T06:11:41;96199.59;;;12.17;42.87
30819;BME280;17546;42.674;23.284;2023-01-01T06:14:07;96185.91;;;12.29;42.83
30819;BME280;17546;42.674;23.284;2023-01-01T06:16:33;96194.84;;;12.33;42.76
30819;BME280;17546;42.674;23.284;2023-01-01T06:18:58;96197.44;;;12.12;43.25
30819;BME280;17546;42.674;23.284;2023-01-01T06:21:25;96192.41;;;12.26;42.92
30819;BME280;17546;42.674;23.284;2023-01-01T06:23:50;96195.63;;;12.33;42.73
30819;BME280;17546;42.674;23.284;2023-01-01T06:26:21;96199.69;;;12.47;42.40
30819;BME280;17546;42.674;23.284;2023-01-01T06:28:47;96195.91;;;12.35;42.39
30819;BME280;17546;42.674;23.284;2023-01-01T06:31:15;96202.13;;;12.30;42.74
30819;BME280;17546;42.674;23.284;2023-01-01T06:33:41;96199.22;;;12.25;42.86
30819;BME280;17546;42.674;23.284;2023-01-01T06:36:11;96207.50;;;12.34;42.69
30819;BME280;17546;42.674;23.284;2023-01-01T06:38:39;96207.56;;;12.49;42.35
30819;BME280;17546;42.674;23.284;2023-01-01T06:41:09;96217.31;;;12.44;42.48
30819;BME280;17546;42.674;23.284;2023-01-01T06:43:35;96218.50;;;12.52;42.37
30819;BME280;17546;42.674;23.284;2023-01-01T06:46:05;96212.16;;;12.52;42.43
30819;BME280;17546;42.674;23.284;2023-01-01T06:48:33;96222.16;;;12.58;42.40
30819;BME280;17546;42.674;23.284;2023-01-01T06:51:04;96226.19;;;12.57;42.43
30819;BME280;17546;42.674;23.284;2023-01-01T06:53:31;96227.06;;;12.39;42.85
30819;BME280;17546;42.674;23.284;2023-01-01T06:55:56;96232.56;;;12.49;42.85
30819;BME280;17546;42.674;23.284;2023-01-01T06:58:21;96230.78;;;12.60;42.58
30819;BME280;17546;42.674;23.284;2023-01-01T07:00:47;96232.25;;;12.71;42.40
30819;BME280;17546;42.674;23.284;2023-01-01T07:03:12;96235.19;;;12.52;42.84
30819;BME280;17546;42.674;23.284;2023-01-01T07:05:38;96231.44;;;12.55;42.83
30819;BME280;17546;42.674;23.284;2023-01-01T07:08:03;96242.88;;;12.57;43.03
30819;BME280;17546;42.674;23.284;2023-01-01T07:10:28;96239.41;;;12.63;43.00
30819;BME280;17546;42.674;23.284;2023-01-01T07:12:54;96233.50;;;12.70;42.64
30819;BME280;17546;42.674;23.284;2023-01-01T07:15:20;96233.31;;;12.73;42.92
30819;BME280;17546;42.674;23.284;2023-01-01T07:17:45;96248.28;;;12.76;43.01
30819;BME280;17546;42.674;23.284;2023-01-01T07:20:11;96237.53;;;12.69;43.03
30819;BME280;17546;42.674;23.284;2023-01-01T07:22:39;96224.44;;;12.84;42.78
30819;BME280;17546;42.674;23.284;2023-01-01T07:25:05;96234.75;;;12.69;43.23
30819;BME280;17546;42.674;23.284;2023-01-01T07:27:31;96223.84;;;12.80;43.02
30819;BME280;17546;42.674;23.284;2023-01-01T07:29:56;96228.56;;;12.89;43.03
30819;BME280;17546;42.674;23.284;2023-01-01T07:32:21;96229.63;;;12.91;43.05
30819;BME280;17546;42.674;23.284;2023-01-01T07:34:47;96225.31;;;13.05;42.80
30819;BME280;17546;42.674;23.284;2023-01-01T07:37:12;96225.53;;;13.01;42.97
30819;BME280;17546;42.674;23.284;2023-01-01T07:39:37;96229.66;;;13.06;42.94
30819;BME280;17546;42.674;23.284;2023-01-01T07:42:03;96230.34;;;13.16;42.68
30819;BME280;17546;42.674;23.284;2023-01-01T07:44:28;96236.28;;;13.09;43.03
30819;BME280;17546;42.674;23.284;2023-01-01T07:47:04;96235.53;;;13.23;42.93
30819;BME280;17546;42.674;23.284;2023-01-01T07:49:30;96230.84;;;13.29;42.97
30819;BME280;17546;42.674;23.284;2023-01-01T07:51:55;96229.91;;;13.32;42.90
30819;BME280;17546;42.674;23.284;2023-01-01T07:54:21;96232.88;;;13.43;42.85
30819;BME280;17546;42.674;23.284;2023-01-01T07:56:46;96225.69;;;13.52;42.65
30819;BME280;17546;42.674;23.284;2023-01-01T07:59:12;96228.56;;;13.42;42.79
30819;BME280;17546;42.674;23.284;2023-01-01T08:01:37;96226.94;;;13.51;42.72
30819;BME280;17546;42.674;23.284;2023-01-01T08:04:03;96238.81;;;13.66;42.55
30819;BME280;17546;42.674;23.284;2023-01-01T08:06:29;96248.81;;;13.73;42.40
30819;BME280;17546;42.674;23.284;2023-01-01T08:08:54;96234.69;;;13.61;42.65
30819;BME280;17546;42.674;23.284;2023-01-01T08:11:20;96243.53;;;13.75;42.59
30819;BME280;17546;42.674;23.284;2023-01-01T08:13:45;96240.91;;;13.86;42.64
30819;BME280;17546;42.674;23.284;2023-01-01T08:16:10;96247.81;;;13.91;42.47
30819;BME280;17546;42.674;23.284;2023-01-01T08:18:36;96252.22;;;13.97;42.47
30819;BME280;17546;42.674;23.284;2023-01-01T08:21:02;96255.69;;;14.07;42.26
30819;BME280;17546;42.674;23.284;2023-01-01T08:23:28;96252.97;;;14.13;42.09
30819;BME280;17546;42.674;23.284;2023-01-01T08:25:57;96250.56;;;14.20;42.23
30819;BME280;17546;42.674;23.284;2023-01-01T08:28:23;96257.00;;;14.26;42.09
30819;BME280;17546;42.674;23.284;2023-01-01T08:30:48;96253.72;;;14.28;42.15
30819;BME280;17546;42.674;23.284;2023-01-01T08:33:15;96260.22;;;14.40;41.96
30819;BME280;17546;42.674;23.284;2023-01-01T08:35:41;96243.00;;;14.41;41.73
30819;BME280;17546;42.674;23.284;2023-01-01T08:38:11;96245.16;;;14.32;42.09
30819;BME280;17546;42.674;23.284;2023-01-01T08:40:37;96244.44;;;14.37;41.97
30819;BME280;17546;42.674;23.284;2023-01-01T08:43:03;96243.38;;;14.49;41.96
30819;BME280;17546;42.674;23.284;2023-01-01T08:45:28;96246.72;;;14.53;41.83
30819;BME280;17546;42.674;23.284;2023-01-01T08:47:53;96247.03;;;14.55;41.83
30819;BME280;17546;42.674;23.284;2023-01-01T08:50:19;96251.44;;;14.62;41.70
30819;BME280;17546;42.674;23.284;2023-01-01T08:52:44;96251.19;;;14.65;41.68
30819;BME280;17546;42.674;23.284;2023-01-01T08:55:10;96256.34;;;14.73;41.34
30819;BME280;17546;42.674;23.284;2023-01-01T08:57:35;96238.94;;;14.78;41.47
30819;BME280;17546;42.674;23.284;2023-01-01T09:00:01;96247.88;;;14.82;41.44
30819;BME280;17546;42.674;23.284;2023-01-01T09:02:26;96249.66;;;14.85;41.38
30819;BME280;17546;42.674;23.284;2023-01-01T09:04:51;96247.56;;;15.00;41.18
30819;BME280;17546;42.674;23.284;2023-01-01T09:07:17;96242.53;;;15.04;40.94
30819;BME280;17546;42.674;23.284;2023-01-01T09:09:42;96233.72;;;15.12;41.03
30819;BME280;17546;42.674;23.284;2023-01-01T09:12:10;96231.97;;;15.14;41.18
30819;BME280;17546;42.674;23.284;2023-01-01T09:14:39;96235.81;;;15.17;41.24
30819;BME280;17546;42.674;23.284;2023-01-01T09:17:04;96229.53;;;15.22;41.05
30819;BME280;17546;42.674;23.284;2023-01-01T09:19:29;96219.78;;;15.12;40.95
30819;BME280;17546;42.674;23.284;2023-01-01T09:21:55;96221.00;;;14.84;40.86
30819;BME280;17546;42.674;23.284;2023-01-01T09:24:20;96215.13;;;15.03;40.51
30819;BME280;17546;42.674;23.284;2023-01-01T09:26:46;96206.25;;;15.04;40.50
30819;BME280;17546;42.674;23.284;2023-01-01T09:29:11;96196.63;;;15.05;40.35
30819;BME280;17546;42.674;23.284;2023-01-01T09:31:37;96205.06;;;15.11;40.33
30819;BME280;17546;42.674;23.284;2023-01-01T09:34:02;96196.47;;;15.15;40.71
30819;BME280;17546;42.674;23.284;2023-01-01T09:36:30;96205.44;;;15.24;40.73
30819;BME280;17546;42.674;23.284;2023-01-01T09:38:56;96202.88;;;15.21;41.04
30819;BME280;17546;42.674;23.284;2023-01-01T09:41:42;96204.72;;;15.29;41.15
30819;BME280;17546;42.674;23.284;2023-01-01T09:46:52;96189.47;;;15.25;40.87
30819;BME280;17546;42.674;23.284;2023-01-01T09:49:33;96190.72;;;15.24;40.96
30819;BME280;17546;42.674;23.284;2023-01-01T09:52:00;96183.06;;;15.19;41.15
30819;BME280;17546;42.674;23.284;2023-01-01T09:54:43;96182.84;;;15.22;41.05
30819;BME280;17546;42.674;23.284;2023-01-01T09:57:12;96184.66;;;15.83;39.94
30819;BME280;17546;42.674;23.284;2023-01-01T09:59:38;96185.53;;;16.01;39.63
30819;BME280;17546;42.674;23.284;2023-01-01T10:04:48;96184.25;;;17.10;38.62
30819;BME280;17546;42.674;23.284;2023-01-01T10:12:35;96174.38;;;17.43;37.15
30819;BME280;17546;42.674;23.284;2023-01-01T10:15:26;96179.72;;;17.52;36.49
30819;BME280;17546;42.674;23.284;2023-01-01T10:17:57;96182.28;;;17.95;36.17
30819;BME280;17546;42.674;23.284;2023-01-01T10:20:27;96168.03;;;17.71;36.40
30819;BME280;17546;42.674;23.284;2023-01-01T10:22:56;96172.84;;;18.04;35.68
30819;BME280;17546;42.674;23.284;2023-01-01T10:25:25;96163.34;;;18.35;35.39
30819;BME280;17546;42.674;23.284;2023-01-01T10:28:18;96172.06;;;18.09;35.16
30819;BME280;17546;42.674;23.284;2023-01-01T10:30:45;96163.41;;;17.56;36.10
30819;BME280;17546;42.674;23.284;2023-01-01T10:33:13;96161.38;;;17.46;36.32
30819;BME280;17546;42.674;23.284;2023-01-01T10:35:45;96160.38;;;17.43;36.33
30819;BME280;17546;42.674;23.284;2023-01-01T10:38:23;96151.72;;;17.86;35.54
30819;BME280;17546;42.674;23.284;2023-01-01T10:40:51;96149.91;;;17.72;35.94
30819;BME280;17546;42.674;23.284;2023-01-01T10:43:17;96149.88;;;18.17;35.17
30819;BME280;17546;42.674;23.284;2023-01-01T10:45:52;96137.44;;;17.67;36.00
30819;BME280;17546;42.674;23.284;2023-01-01T10:50:48;96134.34;;;18.10;35.63
30819;BME280;17546;42.674;23.284;2023-01-01T10:58:48;96119.09;;;17.83;35.75
30819;BME280;17546;42.674;23.284;2023-01-01T11:01:31;96122.56;;;18.23;35.28
30819;BME280;17546;42.674;23.284;2023-01-01T11:06:32;96111.16;;;17.99;35.43
30819;BME280;17546;42.674;23.284;2023-01-01T11:09:00;96104.59;;;17.85;35.64
30819;BME280;17546;42.674;23.284;2023-01-01T11:11:44;96106.06;;;18.03;35.19
30819;BME280;17546;42.674;23.284;2023-01-01T11:14:19;96101.03;;;18.54;34.83
30819;BME280;17546;42.674;23.284;2023-01-01T11:16:46;96100.44;;;18.72;34.17
30819;BME280;17546;42.674;23.284;2023-01-01T11:19:22;96106.59;;;18.65;34.14
30819;BME280;17546;42.674;23.284;2023-01-01T11:21:48;96091.66;;;18.46;34.69
30819;BME280;17546;42.674;23.284;2023-01-01T11:24:19;96096.56;;;18.28;34.87
30819;BME280;17546;42.674;23.284;2023-01-01T11:26:48;96100.97;;;18.01;35.49
30819;BME280;17546;42.674;23.284;2023-01-01T11:31:41;96084.97;;;17.90;35.51
30819;BME280;17546;42.674;23.284;2023-01-01T11:39:42;96069.34;;;18.06;35.52
30819;BME280;17546;42.674;23.284;2023-01-01T11:42:16;96073.50;;;17.88;35.56
30819;BME280;17546;42.674;23.284;2023-01-01T11:44:44;96069.91;;;18.52;34.86
30819;BME280;17546;42.674;23.284;2023-01-01T11:47:38;96069.56;;;18.72;34.85
30819;BME280;17546;42.674;23.284;2023-01-01T11:50:37;96062.03;;;18.50;34.92
30819;BME280;17546;42.674;23.284;2023-01-01T11:53:39;96065.91;;;18.36;35.09
30819;BME280;17546;42.674;23.284;2023-01-01T11:56:15;96061.84;;;18.37;35.13
30819;BME280;17546;42.674;23.284;2023-01-01T11:58:53;96060.25;;;18.47;35.10
30819;BME280;17546;42.674;23.284;2023-01-01T12:09:51;96055.22;;;18.34;35.61
30819;BME280;17546;42.674;23.284;2023-01-01T12:15:12;96049.19;;;18.19;35.72
30819;BME280;17546;42.674;23.284;2023-01-01T12:17:46;96041.97;;;18.29;35.57
30819;BME280;17546;42.674;23.284;2023-01-01T12:20:34;96040.56;;;18.06;36.13
30819;BME280;17546;42.674;23.284;2023-01-01T12:23:01;96026.31;;;17.81;36.39
30819;BME280;17546;42.674;23.284;2023-01-01T12:25:41;96029.91;;;17.87;36.55
30819;BME280;17546;42.674;23.284;2023-01-01T12:35:58;96031.56;;;18.18;36.31
30819;BME280;17546;42.674;23.284;2023-01-01T12:41:39;96035.78;;;18.48;35.72
30819;BME280;17546;42.674;23.284;2023-01-01T12:49:03;96040.31;;;18.56;35.47
30819;BME280;17546;42.674;23.284;2023-01-01T12:51:39;96032.16;;;17.94;36.76
30819;BME280;17546;42.674;23.284;2023-01-01T12:57:04;96032.38;;;18.13;36.34
30819;BME280;17546;42.674;23.284;2023-01-01T12:59:37;96029.59;;;18.55;35.56
30819;BME280;17546;42.674;23.284;2023-01-01T13:02:15;96032.09;;;18.64;35.61
30819;BME280;17546;42.674;23.284;2023-01-01T13:04:45;96027.06;;;18.57;35.63
30819;BME280;17546;42.674;23.284;2023-01-01T13:07:12;96018.81;;;18.70;35.25
30819;BME280;17546;42.674;23.284;2023-01-01T13:09:40;96027.06;;;18.57;35.80
30819;BME280;17546;42.674;23.284;2023-01-01T13:12:21;96015.00;;;18.68;35.64
30819;BME280;17546;42.674;23.284;2023-01-01T13:14:49;96019.03;;;18.78;35.47
30819;BME280;17546;42.674;23.284;2023-01-01T13:17:20;96029.97;;;18.82;35.66
30819;BME280;17546;42.674;23.284;2023-01-01T13:19:47;96031.91;;;18.51;35.87
30819;BME280;17546;42.674;23.284;2023-01-01T13:25:14;96025.94;;;18.71;36.00
30819;BME280;17546;42.674;23.284;2023-01-01T13:33:29;96023.53;;;18.92;35.29
30819;BME280;17546;42.674;23.284;2023-01-01T13:46:50;96026.00;;;19.02;35.40
30819;BME280;17546;42.674;23.284;2023-01-01T13:52:42;96026.72;;;19.08;35.49
30819;BME280;17546;42.674;23.284;2023-01-01T13:55:38;96030.03;;;19.06;35.25
30819;BME280;17546;42.674;23.284;2023-01-01T13:58:23;96033.47;;;18.93;35.71
30819;BME280;17546;42.674;23.284;2023-01-01T14:03:40;96027.31;;;18.95;35.67
30819;BME280;17546;42.674;23.284;2023-01-01T14:06:38;96028.28;;;19.03;35.58
30819;BME280;17546;42.674;23.284;2023-01-01T14:09:12;96025.19;;;19.07;35.39
30819;BME280;17546;42.674;23.284;2023-01-01T14:11:38;96028.47;;;19.11;35.65
30819;BME280;17546;42.674;23.284;2023-01-01T14:17:01;96029.94;;;19.17;35.21
30819;BME280;17546;42.674;23.284;2023-01-01T14:19:30;96025.88;;;19.18;35.34
30819;BME280;17546;42.674;23.284;2023-01-01T14:21:57;96019.72;;;19.20;35.17
30819;BME280;17546;42.674;23.284;2023-01-01T14:24:23;96025.06;;;19.24;35.09
30819;BME280;17546;42.674;23.284;2023-01-01T14:26:50;96021.25;;;19.21;35.19
30819;BME280;17546;42.674;23.284;2023-01-01T14:31:48;96029.59;;;19.27;35.17
30819;BME280;17546;42.674;23.284;2023-01-01T14:34:22;96030.91;;;19.26;35.42
30819;BME280;17546;42.674;23.284;2023-01-01T14:36:59;96029.16;;;19.23;35.40
30819;BME280;17546;42.674;23.284;2023-01-01T14:39:33;96024.88;;;19.16;35.69
30819;BME280;17546;42.674;23.284;2023-01-01T14:42:13;96030.50;;;19.16;35.60
30819;BME280;17546;42.674;23.284;2023-01-01T14:44:45;96033.09;;;19.08;36.06
30819;BME280;17546;42.674;23.284;2023-01-01T14:47:23;96039.53;;;19.03;36.08
30819;BME280;17546;42.674;23.284;2023-01-01T14:49:49;96033.19;;;18.97;35.90
30819;BME280;17546;42.674;23.284;2023-01-01T14:52:27;96042.88;;;18.96;36.09
30819;BME280;17546;42.674;23.284;2023-01-01T14:54:55;96034.44;;;18.96;36.08
30819;BME280;17546;42.674;23.284;2023-01-01T14:57:25;96041.38;;;18.95;35.94
30819;BME280;17546;42.674;23.284;2023-01-01T14:59:51;96043.44;;;18.89;36.14